Time;durP1;ratioP1;P1;durP2;ratioP2;P2;SDS_P1;SDS_P2;PMS_P1;PMS_P2;Temp;Humidity;BMP_temperature;BMP_pressure;BME280_temperature;BME280_humidity;BME280_pressure;Samples;Min_cycle;Max_cycle;Signal;HPM_P1;HPM_P2
2022/04/23 00:00:01;;;;;;;15.57;10.77;;;4.80;99.90;;;;;;5105928;28;20055;-73
2022/04/23 00:02:29;;;;;;;13.17;11.33;;;4.70;99.90;;;;;;5098053;28;20052;-73
2022/04/23 00:04:56;;;;;;;16.73;11.47;;;4.70;99.90;;;;;;5097348;28;20048;-72
2022/04/23 00:07:24;;;;;;;16.57;11.13;;;4.60;99.90;;;;;;5097677;28;20040;-74
2022/04/23 00:09:51;;;;;;;14.17;11.43;;;4.60;99.90;;;;;;5098082;28;20048;-73
2022/04/23 00:12:18;;;;;;;13.97;11.03;;;4.50;99.90;;;;;;5096417;28;20485;-74
2022/04/23 00:14:45;;;;;;;13.87;11.40;;;4.60;99.90;;;;;;5096511;28;20056;-73
2022/04/23 00:17:12;;;;;;;15.87;11.43;;;4.50;99.90;;;;;;5109923;28;20409;-73
2022/04/23 00:19:38;;;;;;;15.17;11.30;;;4.40;99.90;;;;;;5114723;28;20104;-74
2022/04/23 00:22:05;;;;;;;16.17;11.50;;;4.30;99.90;;;;;;5116788;28;20455;-74
2022/04/23 00:24:33;;;;;;;13.30;10.73;;;4.30;99.90;;;;;;5116780;28;20050;-74
2022/04/23 00:27:00;;;;;;;17.50;11.33;;;4.30;99.90;;;;;;5116504;28;20052;-73
2022/04/23 00:29:28;;;;;;;12.77;10.93;;;4.20;99.90;;;;;;5114715;28;20054;-75
2022/04/23 00:31:55;;;;;;;13.47;10.63;;;4.20;99.90;;;;;;5098078;28;20040;-74
2022/04/23 00:34:22;;;;;;;17.50;11.57;;;4.10;99.90;;;;;;5095674;28;20083;-73
2022/04/23 00:36:49;;;;;;;14.57;11.67;;;4.10;99.90;;;;;;5095463;28;20504;-72
2022/04/23 00:39:15;;;;;;;14.40;11.57;;;4.20;99.90;;;;;;5095789;28;20108;-73
2022/04/23 00:41:46;;;;;;;16.07;12.53;;;4.10;99.90;;;;;;5114477;28;20051;-74
2022/04/23 00:44:13;;;;;;;17.58;11.88;;;4.20;99.90;;;;;;5100501;28;20043;-74
2022/04/23 00:46:40;;;;;;;16.43;12.47;;;4.20;99.90;;;;;;5095697;28;20048;-74
2022/04/23 00:49:07;;;;;;;20.33;13.17;;;4.20;99.90;;;;;;5095746;28;20062;-74
2022/04/23 00:51:34;;;;;;;15.67;11.90;;;4.30;99.90;;;;;;5095465;28;20097;-73
2022/04/23 00:54:05;;;;;;;15.47;12.40;;;4.20;99.90;;;;;;5096695;28;20135;-73
2022/04/23 00:56:32;;;;;;;17.33;13.23;;;4.30;99.90;;;;;;5095209;28;20484;-73
2022/04/23 00:59:03;;;;;;;15.40;11.33;;;4.20;99.90;;;;;;5095668;28;20047;-73
2022/04/23 01:01:30;;;;;;;16.13;12.50;;;4.10;99.90;;;;;;5095846;28;20043;-73
2022/04/23 01:03:57;;;;;;;16.50;11.13;;;4.00;99.90;;;;;;5096439;28;20097;-73
2022/04/23 01:06:24;;;;;;;15.97;11.77;;;4.10;99.90;;;;;;5095486;28;20127;-74
2022/04/23 01:08:51;;;;;;;17.07;12.80;;;4.00;99.90;;;;;;5096287;28;20050;-74
2022/04/23 01:11:18;;;;;;;17.13;12.97;;;4.00;99.90;;;;;;5095673;28;20040;-74
2022/04/23 01:13:45;;;;;;;17.67;12.63;;;4.00;99.90;;;;;;5095917;28;20169;-73
2022/04/23 01:16:13;;;;;;;16.70;13.13;;;3.90;99.90;;;;;;5096417;28;20109;-74
2022/04/23 01:18:42;;;;;;;15.27;11.47;;;3.80;99.90;;;;;;5096278;28;20051;-74
2022/04/23 01:21:13;;;;;;;15.87;11.63;;;3.70;99.90;;;;;;5098995;28;20558;-74
2022/04/23 01:23:42;;;;;;;18.37;12.43;;;3.60;99.90;;;;;;5115446;28;20075;-73
2022/04/23 01:26:09;;;;;;;15.50;12.57;;;3.60;99.90;;;;;;5113764;28;20054;-73
2022/04/23 01:28:37;;;;;;;16.10;11.07;;;3.50;99.90;;;;;;5115025;28;20048;-73
2022/04/23 01:31:05;;;;;;;16.13;11.50;;;3.50;99.90;;;;;;5114217;28;20047;-74
2022/04/23 01:33:34;;;;;;;18.97;12.83;;;3.40;99.90;;;;;;5095084;28;20044;-74
2022/04/23 01:36:02;;;;;;;15.37;11.97;;;3.40;99.90;;;;;;5095489;28;20490;-74
2022/04/23 01:38:30;;;;;;;15.23;11.73;;;3.30;99.90;;;;;;5094644;28;20066;-74
2022/04/23 01:40:56;;;;;;;18.33;13.63;;;3.30;99.90;;;;;;5094674;28;20048;-73
2022/04/23 01:43:23;;;;;;;19.23;14.47;;;3.40;99.90;;;;;;5111215;28;20448;-74
2022/04/23 01:45:50;;;;;;;15.27;12.83;;;3.50;99.90;;;;;;5115023;28;20097;-74
2022/04/23 01:48:16;;;;;;;19.37;13.10;;;3.50;99.90;;;;;;5113268;28;20044;-73
2022/04/23 01:50:43;;;;;;;17.53;12.53;;;3.50;99.90;;;;;;5114981;28;20047;-73
2022/04/23 01:53:10;;;;;;;15.97;12.90;;;3.50;99.90;;;;;;5114412;28;20051;-74
2022/04/23 01:55:40;;;;;;;17.60;13.10;;;3.50;99.90;;;;;;5114554;28;20407;-74
2022/04/23 01:58:07;;;;;;;15.73;12.30;;;3.50;99.90;;;;;;5112768;28;20488;-74
2022/04/23 02:00:34;;;;;;;18.63;10.87;;;3.40;99.90;;;;;;5114750;28;20051;-73
2022/04/23 02:03:01;;;;;;;16.10;12.73;;;3.40;99.90;;;;;;5114460;28;20493;-73
2022/04/23 02:05:28;;;;;;;20.53;12.97;;;3.40;99.90;;;;;;5097825;28;20482;-72
2022/04/23 02:07:55;;;;;;;18.90;13.50;;;3.40;99.90;;;;;;5094948;28;20047;-73
2022/04/23 02:10:21;;;;;;;20.87;14.07;;;3.40;99.90;;;;;;5094454;28;20490;-73
2022/04/23 02:12:49;;;;;;;16.57;12.20;;;3.30;99.90;;;;;;5094374;28;20048;-72
2022/04/23 02:15:17;;;;;;;20.07;14.13;;;3.30;99.90;;;;;;5094711;28;20048;-74
2022/04/23 02:17:47;;;;;;;16.17;11.80;;;3.30;99.90;;;;;;5095704;28;20113;-74
2022/04/23 02:20:16;;;;;;;21.83;14.23;;;3.20;99.90;;;;;;5094422;28;20052;-74
2022/04/23 02:22:44;;;;;;;20.93;13.93;;;3.20;99.90;;;;;;5094083;28;20046;-74
2022/04/23 02:25:11;;;;;;;18.90;13.77;;;3.10;99.90;;;;;;5095002;28;20048;-72
2022/04/23 02:27:43;;;;;;;18.27;13.60;;;3.10;99.90;;;;;;5095944;28;20101;-74
2022/04/23 02:30:15;;;;;;;15.68;12.00;;;3.00;99.90;;;;;;5098132;28;20465;-72
2022/04/23 02:32:43;;;;;;;16.13;11.90;;;3.00;99.90;;;;;;5108374;28;20047;-74
2022/04/23 02:35:10;;;;;;;19.73;12.87;;;2.90;99.90;;;;;;5116637;28;20439;-73
2022/04/23 02:37:37;;;;;;;18.37;13.60;;;2.90;99.90;;;;;;5116392;28;20486;-74
2022/04/23 02:40:04;;;;;;;13.87;11.87;;;2.90;99.90;;;;;;5114641;28;20440;-74
2022/04/23 02:42:31;;;;;;;17.83;12.67;;;2.90;99.90;;;;;;5116480;28;20051;-74
2022/04/23 02:45:01;;;;;;;14.43;12.37;;;2.90;99.90;;;;;;5114042;28;20047;-74
2022/04/23 02:47:29;;;;;;;18.33;13.20;;;2.90;99.90;;;;;;5113947;28;20512;-73
2022/04/23 02:49:55;;;;;;;17.53;13.70;;;2.90;99.90;;;;;;5111995;28;20104;-73
2022/04/23 02:52:22;;;;;;;21.60;14.23;;;2.90;99.90;;;;;;5113946;28;20484;-72
2022/04/23 02:54:50;;;;;;;20.93;13.67;;;2.90;99.90;;;;;;5114125;28;20051;-72
2022/04/23 02:57:17;;;;;;;20.00;14.73;;;2.90;99.90;;;;;;5113851;28;20051;-73
2022/04/23 02:59:43;;;;;;;21.03;13.50;;;2.90;99.90;;;;;;5112072;28;20043;-73
2022/04/23 03:02:10;;;;;;;18.13;12.80;;;2.80;99.90;;;;;;5113811;28;20055;-72
2022/04/23 03:04:38;;;;;;;16.77;13.03;;;2.80;99.90;;;;;;5113813;28;20051;-73
2022/04/23 03:07:05;;;;;;;16.73;13.50;;;2.70;99.90;;;;;;5116629;28;20044;-73
2022/04/23 03:09:31;;;;;;;18.27;13.50;;;2.70;99.90;;;;;;5115166;28;20124;-73
2022/04/23 03:11:58;;;;;;;16.27;11.63;;;2.60;99.90;;;;;;5117943;28;20085;-72
2022/04/23 03:14:25;;;;;;;22.13;14.97;;;2.60;99.90;;;;;;5117529;28;20051;-74
2022/04/23 03:16:51;;;;;;;20.47;13.43;;;2.60;99.90;;;;;;5117673;28;20044;-73
2022/04/23 03:19:18;;;;;;;18.80;12.67;;;2.60;99.90;;;;;;5117584;28;20056;-73
2022/04/23 03:21:46;;;;;;;19.50;14.13;;;2.60;99.90;;;;;;5115708;28;20489;-73
2022/04/23 03:24:13;;;;;;;17.67;12.90;;;2.70;99.90;;;;;;5117656;28;20043;-73
2022/04/23 03:26:39;;;;;;;18.60;13.10;;;2.70;99.90;;;;;;5117298;28;20539;-73
2022/04/23 03:29:07;;;;;;;15.83;11.53;;;2.50;99.90;;;;;;5097124;28;20044;-73
2022/04/23 03:31:33;;;;;;;17.50;13.03;;;2.50;99.90;;;;;;5098251;28;20040;-74
2022/04/23 03:34:00;;;;;;;21.27;13.13;;;2.40;99.90;;;;;;5097161;28;20052;-73
2022/04/23 03:36:27;;;;;;;15.40;11.13;;;2.30;99.90;;;;;;5096834;28;20491;-73
2022/04/23 03:38:55;;;;;;;17.23;13.00;;;2.20;99.90;;;;;;5097052;28;20131;-74
2022/04/23 03:41:21;;;;;;;14.93;12.27;;;2.10;99.90;;;;;;5104456;28;20096;-72
2022/04/23 03:43:48;;;;;;;17.43;11.60;;;2.10;99.90;;;;;;5117373;28;20051;-73
2022/04/23 03:46:15;;;;;;;20.10;13.33;;;2.10;99.90;;;;;;5117362;28;20100;-74
2022/04/23 03:48:42;;;;;;;15.27;12.77;;;2.10;99.90;;;;;;5117060;28;20043;-73
2022/04/23 03:51:08;;;;;;;18.63;13.43;;;2.20;99.90;;;;;;5116046;28;20058;-74
2022/04/23 03:53:36;;;;;;;18.80;13.67;;;2.30;99.90;;;;;;5117031;28;20473;-73
2022/04/23 03:56:05;;;;;;;17.10;12.30;;;2.30;99.90;;;;;;5105498;28;20070;-73
2022/04/23 03:58:32;;;;;;;19.77;13.13;;;2.30;99.90;;;;;;5096682;28;20093;-73
2022/04/23 04:00:58;;;;;;;16.33;11.30;;;2.30;99.90;;;;;;5096579;28;20048;-73
2022/04/23 04:03:26;;;;;;;18.73;14.47;;;2.30;99.90;;;;;;5097676;28;20562;-73
2022/04/23 04:05:53;;;;;;;19.00;13.90;;;2.20;99.90;;;;;;5096752;28;20130;-73
2022/04/23 04:08:19;;;;;;;17.67;13.37;;;2.20;99.90;;;;;;5095889;28;20547;-73
2022/04/23 04:10:46;;;;;;;16.17;12.77;;;2.30;99.90;;;;;;5111556;28;20085;-73
2022/04/23 04:13:14;;;;;;;19.63;14.20;;;2.40;99.90;;;;;;5115194;28;20047;-72
2022/04/23 04:15:44;;;;;;;18.60;13.10;;;2.40;99.90;;;;;;5115618;28;20490;-74
2022/04/23 04:18:12;;;;;;;19.07;13.63;;;2.40;99.90;;;;;;5115239;28;20404;-75
2022/04/23 04:20:40;;;;;;;23.77;15.23;;;2.50;99.90;;;;;;5113752;28;20097;-73
2022/04/23 04:23:06;;;;;;;18.67;12.77;;;2.60;99.90;;;;;;5115241;28;20104;-73
2022/04/23 04:25:34;;;;;;;18.63;14.07;;;2.70;99.90;;;;;;5105435;28;20044;-74
2022/04/23 04:28:02;;;;;;;20.23;14.07;;;2.80;99.90;;;;;;5095331;28;20044;-73
2022/04/23 04:31:46;;;;;;;20.23;15.13;;;2.90;99.90;;;;;;5098350;28;20390;-74
2022/04/23 04:33:17;;;;;;;20.57;13.83;;;3.00;99.90;;;;;;5095886;28;20417;-74
2022/04/23 04:35:43;;;;;;;21.27;13.67;;;3.00;99.90;;;;;;5095029;28;20051;-73
2022/04/23 04:38:10;;;;;;;18.17;14.07;;;3.10;99.90;;;;;;5095181;28;20048;-74
2022/04/23 04:40:37;;;;;;;17.83;12.37;;;3.10;99.90;;;;;;5095096;28;20505;-75
2022/04/23 04:43:05;;;;;;;17.90;12.43;;;3.30;99.90;;;;;;5099669;28;20043;-74
2022/04/23 04:45:32;;;;;;;17.40;12.60;;;3.30;99.90;;;;;;5114938;28;20043;-73
2022/04/23 04:47:59;;;;;;;14.67;10.63;;;3.40;99.90;;;;;;5114391;28;20526;-73
2022/04/23 04:50:26;;;;;;;17.53;12.30;;;3.50;99.90;;;;;;5094795;28;20055;-73
2022/04/23 04:52:53;;;;;;;15.70;11.83;;;3.60;99.90;;;;;;5095764;28;20051;-73
2022/04/23 04:55:19;;;;;;;18.93;13.07;;;3.70;99.90;;;;;;5096654;28;20462;-73
2022/04/23 04:57:48;;;;;;;17.07;11.60;;;3.80;99.90;;;;;;5095190;28;20110;-73
2022/04/23 05:00:16;;;;;;;12.60;10.23;;;3.90;99.90;;;;;;5095459;28;20135;-73
2022/04/23 05:02:44;;;;;;;16.30;12.83;;;4.00;99.90;;;;;;5096272;28;20048;-73
2022/04/23 05:05:11;;;;;;;15.87;11.60;;;4.10;99.90;;;;;;5115074;28;20065;-74
2022/04/23 05:10:18;;;;;;;15.23;12.83;;;4.20;99.90;;;;;;5128439;27;20578;-73
2022/04/23 05:12:45;;;;;;;18.87;11.03;;;4.50;99.90;;;;;;5096140;28;20048;-74
2022/04/23 05:15:12;;;;;;;16.50;12.20;;;4.60;99.90;;;;;;5078615;28;20118;-73
2022/04/23 05:17:39;;;;;;;16.27;11.87;;;4.80;99.90;;;;;;5075587;28;20131;-74
2022/04/23 05:20:07;;;;;;;15.10;11.37;;;4.90;99.90;;;;;;5070687;28;20132;-74
2022/04/23 05:22:34;;;;;;;13.80;10.20;;;5.00;99.90;;;;;;5070645;28;20107;-74
2022/04/23 05:25:00;;;;;;;18.63;12.97;;;5.20;99.90;;;;;;5071562;28;20087;-73
2022/04/23 05:27:28;;;;;;;16.53;11.37;;;5.30;99.90;;;;;;5070538;28;20110;-74
2022/04/23 05:29:55;;;;;;;17.03;11.37;;;5.40;99.90;;;;;;5071016;28;20049;-73
2022/04/23 05:32:21;;;;;;;15.60;11.77;;;5.60;99.90;;;;;;5072000;28;20049;-73
2022/04/23 05:34:48;;;;;;;15.57;9.87;;;5.70;99.90;;;;;;5070832;28;20044;-73
2022/04/23 05:37:15;;;;;;;13.60;11.00;;;5.80;99.90;;;;;;5070064;28;20545;-73
2022/04/23 05:39:41;;;;;;;17.67;11.03;;;6.00;99.90;;;;;;5069811;28;20053;-73
2022/04/23 05:42:08;;;;;;;15.07;10.90;;;6.10;99.90;;;;;;5070050;28;20487;-73
2022/04/23 05:44:36;;;;;;;13.83;9.97;;;6.30;99.90;;;;;;5069984;28;20087;-74
2022/04/23 05:47:03;;;;;;;12.93;10.90;;;6.60;99.90;;;;;;5069702;28;20091;-73
2022/04/23 05:49:30;;;;;;;14.87;10.40;;;6.90;99.90;;;;;;5069818;28;20052;-74
2022/04/23 05:51:56;;;;;;;12.17;9.77;;;7.20;99.90;;;;;;5069958;28;20048;-74
2022/04/23 05:54:23;;;;;;;14.17;10.60;;;7.50;99.90;;;;;;5070132;28;20048;-74
2022/04/23 05:56:50;;;;;;;12.18;9.40;;;7.80;99.90;;;;;;5069521;28;20461;-73
2022/04/23 05:59:16;;;;;;;14.02;10.27;;;8.10;99.90;;;;;;5069545;28;20509;-73
2022/04/23 06:01:44;;;;;;;16.05;10.40;;;8.30;99.90;;;;;;5069869;28;20049;-73
2022/04/23 06:04:11;;;;;;;16.25;10.13;;;8.60;99.90;;;;;;5069022;28;20049;-73
2022/04/23 06:06:38;;;;;;;13.38;10.45;;;9.00;99.90;;;;;;5069485;28;20128;-74
2022/04/23 06:09:05;;;;;;;13.43;10.15;;;9.30;99.90;;;;;;5069143;28;20118;-74
2022/04/23 06:11:31;;;;;;;15.65;12.25;;;9.60;99.90;;;;;;5069428;28;20094;-73
2022/04/23 06:13:58;;;;;;;15.90;10.90;;;9.90;99.90;;;;;;5068879;28;20483;-73
2022/04/23 06:16:24;;;;;;;15.68;10.73;;;10.10;99.90;;;;;;5069059;28;20045;-73
2022/04/23 06:18:52;;;;;;;15.57;11.32;;;10.30;99.90;;;;;;5069476;28;20044;-73
2022/04/23 06:21:21;;;;;;;15.27;11.48;;;10.70;99.90;;;;;;5057517;28;20075;-72
2022/04/23 06:23:48;;;;;;;14.65;10.80;;;10.90;99.90;;;;;;5055506;28;20041;-73
2022/04/23 06:26:15;;;;;;;15.27;10.18;;;11.10;99.90;;;;;;5055404;28;20491;-73
2022/04/23 06:28:41;;;;;;;15.13;10.27;;;11.50;99.90;;;;;;5055329;28;20487;-73
2022/04/23 06:31:08;;;;;;;18.67;13.88;;;11.70;99.90;;;;;;5055552;28;20102;-74
2022/04/23 06:33:35;;;;;;;17.73;11.63;;;12.10;99.90;;;;;;5055171;28;20430;-73
2022/04/23 06:36:04;;;;;;;13.57;10.98;;;12.50;99.90;;;;;;5071089;28;20052;-74
2022/04/23 06:38:31;;;;;;;13.45;10.60;;;12.80;99.90;;;;;;5073065;28;20048;-70
2022/04/23 06:41:00;;;;;;;12.57;10.52;;;13.10;99.90;;;;;;5061965;28;20072;-70
2022/04/23 06:43:27;;;;;;;12.90;9.23;;;13.40;99.90;;;;;;5075497;28;20049;-71
2022/04/23 06:45:55;;;;;;;13.60;10.63;;;13.60;99.90;;;;;;5075622;28;20490;-74
2022/04/23 06:48:22;;;;;;;11.27;9.63;;;13.80;99.90;;;;;;5075550;28;20052;-76
2022/04/23 06:50:50;;;;;;;11.85;9.27;;;13.80;99.90;;;;;;5075583;28;20055;-76
2022/04/23 06:53:18;;;;;;;14.13;10.30;;;14.00;99.90;;;;;;5075409;28;20052;-76
2022/04/23 06:55:44;;;;;;;12.68;9.82;;;14.30;99.90;;;;;;5060811;28;20041;-74
2022/04/23 06:58:12;;;;;;;14.23;10.85;;;14.60;99.60;;;;;;5055367;28;20064;-75
2022/04/23 07:00:41;;;;;;;13.25;9.60;;;14.90;96.70;;;;;;5056206;28;20413;-74
2022/04/23 07:03:08;;;;;;;13.07;10.07;;;15.10;95.30;;;;;;5056089;28;20040;-75
2022/04/23 07:05:35;;;;;;;11.57;10.10;;;15.50;94.60;;;;;;5055595;28;20122;-73
2022/04/23 07:08:03;;;;;;;14.68;11.43;;;15.80;92.40;;;;;;5055080;28;20068;-73
2022/04/23 07:10:34;;;;;;;13.43;10.10;;;15.70;91.80;;;;;;5055798;28;20422;-74
2022/04/23 07:13:02;;;;;;;13.43;10.27;;;16.00;91.40;;;;;;5073354;28;20071;-75
2022/04/23 07:15:29;;;;;;;11.60;8.63;;;16.20;90.30;;;;;;5072907;28;20044;-71
2022/04/23 07:17:57;;;;;;;12.95;9.55;;;16.40;86.90;;;;;;5074393;28;20055;-70
2022/04/23 07:20:24;;;;;;;11.40;10.10;;;16.40;85.50;;;;;;5059484;28;20469;-75
2022/04/23 07:25:37;;;;;;;12.07;9.18;;;16.90;83.10;;;;;;5058183;28;20052;-74
2022/04/23 07:28:05;;;;;;;12.52;9.45;;;17.10;81.50;;;;;;5055047;28;20052;-77
2022/04/23 07:30:33;;;;;;;10.23;8.43;;;17.50;80.50;;;;;;5055031;28;20056;-74
2022/04/23 07:33:00;;;;;;;12.57;8.88;;;17.80;78.30;;;;;;5055744;28;20410;-74
2022/04/23 07:38:12;;;;;;;10.80;8.43;;;18.50;75.00;;;;;;5054532;28;20056;-75
2022/04/23 07:40:41;;;;;;;9.15;7.30;;;18.80;73.40;;;;;;5067707;28;20051;-75
2022/04/23 07:43:10;;;;;;;8.27;7.00;;;19.10;71.10;;;;;;5062007;28;20068;-72
2022/04/23 07:45:37;;;;;;;7.95;6.97;;;18.90;68.70;;;;;;5054723;28;20128;-75
2022/04/23 07:48:04;;;;;;;8.05;7.00;;;18.90;67.30;;;;;;5068632;28;20041;-73
2022/04/23 07:50:31;;;;;;;8.38;6.60;;;18.80;67.50;;;;;;5073787;28;20540;-73
2022/04/23 07:52:58;;;;;;;8.18;6.53;;;18.70;67.30;;;;;;5070773;28;20056;-75
2022/04/23 07:55:25;;;;;;;7.15;6.00;;;18.60;66.50;;;;;;5074442;28;20128;-72
2022/04/23 07:57:53;;;;;;;8.02;6.88;;;18.60;66.00;;;;;;5073592;28;20097;-73
2022/04/23 08:00:19;;;;;;;8.52;7.35;;;18.60;65.70;;;;;;5074052;28;20049;-74
2022/04/23 08:02:46;;;;;;;7.97;7.05;;;18.80;65.40;;;;;;5071854;28;20080;-73
2022/04/23 08:05:13;;;;;;;7.85;6.07;;;18.70;65.20;;;;;;5061820;28;20053;-74
2022/04/23 08:07:40;;;;;;;7.68;6.80;;;18.60;63.70;;;;;;5054881;28;20052;-74
2022/04/23 08:10:08;;;;;;;7.97;7.22;;;18.60;63.70;;;;;;5053497;28;20059;-75
2022/04/23 08:12:35;;;;;;;8.07;7.28;;;19.00;65.00;;;;;;5058330;28;20040;-74
2022/04/23 08:15:05;;;;;;;8.85;6.72;;;19.20;63.20;;;;;;5071560;28;20490;-76
2022/04/23 08:17:31;;;;;;;8.25;7.22;;;19.50;63.00;;;;;;5073515;28;20052;-75
2022/04/23 08:19:58;;;;;;;9.07;7.22;;;19.70;61.90;;;;;;5073083;28;20166;-76
2022/04/23 08:22:25;;;;;;;8.23;7.32;;;20.00;61.70;;;;;;5058820;28;20045;-75
2022/04/23 08:24:52;;;;;;;9.85;8.18;;;20.30;61.10;;;;;;5054138;28;20498;-74
2022/04/23 08:27:18;;;;;;;9.00;8.10;;;20.50;60.50;;;;;;5053681;28;20379;-72
2022/04/23 08:32:30;;;;;;;8.18;7.22;;;20.60;59.00;;;;;;5053508;28;20055;-75
2022/04/23 08:34:58;;;;;;;9.13;6.70;;;20.50;58.40;;;;;;5053706;28;20045;-74
2022/04/23 08:37:25;;;;;;;7.47;6.75;;;21.00;58.60;;;;;;5054384;28;20049;-75
2022/04/23 08:39:52;;;;;;;8.93;7.22;;;21.30;58.20;;;;;;5057519;28;20082;-73
2022/04/23 08:42:19;;;;;;;8.05;6.93;;;21.60;57.10;;;;;;5062001;28;20044;-74
2022/04/23 08:44:46;;;;;;;6.93;6.22;;;21.70;56.20;;;;;;5057753;28;20048;-74
2022/04/23 08:47:13;;;;;;;6.78;6.07;;;21.90;55.50;;;;;;5053559;28;20118;-73
2022/04/23 08:49:43;;;;;;;6.65;6.05;;;22.00;54.90;;;;;;5069934;28;20048;-73
2022/04/23 08:52:15;;;;;;;7.22;6.43;;;21.90;54.20;;;;;;5052929;28;20037;-74
2022/04/23 08:54:42;;;;;;;6.88;6.28;;;21.90;54.00;;;;;;5071404;28;20053;-73
2022/04/23 08:57:09;;;;;;;9.18;5.45;;;22.20;53.70;;;;;;5072405;28;20098;-74
2022/04/23 08:59:37;;;;;;;6.40;5.80;;;22.30;54.10;;;;;;5073291;28;20102;-73
2022/04/23 09:02:08;;;;;;;6.45;5.80;;;22.50;52.90;;;;;;5071075;28;20478;-74
2022/04/23 09:04:37;;;;;;;8.32;6.07;;;23.00;53.40;;;;;;5070876;28;20082;-74
2022/04/23 09:07:05;;;;;;;6.68;6.07;;;23.10;51.70;;;;;;5072538;28;20114;-74
2022/04/23 09:09:32;;;;;;;6.78;6.18;;;23.00;51.10;;;;;;5056184;28;20107;-75
2022/04/23 09:11:59;;;;;;;7.53;6.63;;;22.60;50.90;;;;;;5053098;28;20055;-75
2022/04/23 09:14:28;;;;;;;7.60;6.88;;;22.70;51.20;;;;;;5062183;28;20469;-74
2022/04/23 09:25:30;;;;;;;6.28;5.68;;;22.30;49.40;;;;;;5071474;28;20452;-85
2022/04/23 09:27:57;;;;;;;6.30;5.68;;;20.90;52.20;;;;;;5053484;28;20381;-72
2022/04/23 09:30:26;;;;;;;5.85;5.25;;;21.00;52.40;;;;;;5052999;28;20053;-75
2022/04/23 09:32:57;;;;;;;5.57;5.07;;;21.70;52.10;;;;;;5053112;28;20053;-73
2022/04/23 09:35:25;;;;;;;8.20;5.68;;;22.10;50.50;;;;;;5053148;28;20387;-74
2022/04/23 09:40:33;;;;;;;6.78;6.00;;;22.20;49.70;;;;;;5052220;28;20147;-72
2022/04/23 09:43:02;;;;;;;7.72;5.40;;;22.50;49.80;;;;;;5068099;28;20202;-74
2022/04/23 09:45:30;;;;;;;6.38;4.85;;;23.00;49.50;;;;;;5072953;28;20094;-73
2022/04/23 09:47:57;;;;;;;6.80;6.20;;;23.00;47.60;;;;;;5073198;28;20056;-74
2022/04/23 09:50:24;;;;;;;6.97;6.30;;;22.60;47.40;;;;;;5073218;28;20048;-75
2022/04/23 09:52:53;;;;;;;5.50;5.00;;;22.90;49.30;;;;;;5082365;28;20071;-75
2022/04/23 09:55:24;;;;;;;6.45;5.60;;;23.40;48.20;;;;;;5081971;28;20056;-74
2022/04/23 09:57:51;;;;;;;;;;;23.50;48.10;;;;;;5093445;28;20049;-73
2022/04/23 10:00:18;;;;;;;9.18;5.95;;;23.70;47.40;;;;;;5096459;28;19920;-74
2022/04/23 10:02:46;;;;;;;6.95;5.38;;;23.50;47.70;;;;;;5097350;28;20072;-75
2022/04/23 10:05:18;;;;;;;6.45;5.82;;;23.20;47.80;;;;;;5097316;28;20096;-75
2022/04/23 10:07:51;;;;;;;7.53;5.88;;;23.40;48.20;;;;;;5097475;28;20048;-74
2022/04/23 10:10:20;;;;;;;5.72;4.78;;;23.60;47.10;;;;;;5084269;28;20060;-73
2022/04/23 10:12:48;;;;;;;5.10;4.57;;;23.80;46.50;;;;;;5097299;28;20048;-74
2022/04/23 10:15:15;;;;;;;7.35;5.97;;;24.00;46.20;;;;;;5078547;28;20056;-74
2022/04/23 10:17:43;;;;;;;7.13;6.43;;;24.30;46.00;;;;;;5077246;28;20387;-74
2022/04/23 10:20:13;;;;;;;5.88;5.28;;;24.10;45.90;;;;;;5076747;28;20049;-73
2022/04/23 10:22:53;;;;;;;5.80;5.20;;;24.10;46.10;;;;;;5076555;28;20048;-76
2022/04/23 10:25:31;;;;;;;6.07;5.57;;;24.50;46.10;;;;;;5076477;28;20105;-74
2022/04/23 10:28:00;;;;;;;5.35;4.82;;;24.60;45.90;;;;;;5076150;28;20070;-74
2022/04/23 10:30:28;;;;;;;6.32;5.72;;;24.90;45.10;;;;;;5076462;28;20405;-75
2022/04/23 10:32:54;;;;;;;5.43;4.93;;;24.80;45.30;;;;;;5075997;28;20052;-74
2022/04/23 10:35:36;;;;;;;6.15;5.63;;;25.10;45.40;;;;;;5076245;28;20384;-73
2022/04/23 10:38:21;;;;;;;5.10;4.70;;;25.50;43.80;;;;;;5073294;28;20105;-74
2022/04/23 10:40:53;;;;;;;5.40;4.90;;;25.10;44.10;;;;;;5075815;28;20041;-74
2022/04/23 10:43:19;;;;;;;5.63;5.10;;;24.90;44.70;;;;;;5075791;28;20049;-75
2022/04/23 10:45:48;;;;;;;6.25;5.00;;;25.30;45.10;;;;;;5075561;28;20490;-74
2022/04/23 10:48:25;;;;;;;5.13;4.68;;;25.60;44.70;;;;;;5075653;28;20505;-74
2022/04/23 10:51:06;;;;;;;6.07;5.03;;;25.70;43.70;;;;;;5076071;28;20051;-74
2022/04/23 10:53:55;;;;;;;5.05;4.10;;;25.20;43.20;;;;;;5075996;28;20048;-73
2022/04/23 10:56:26;;;;;;;4.55;4.05;;;25.40;43.10;;;;;;5075798;28;20113;-74
2022/04/23 10:58:53;;;;;;;5.47;4.22;;;25.20;43.60;;;;;;5075717;28;20060;-74
2022/04/23 11:01:25;;;;;;;4.32;3.92;;;25.00;43.70;;;;;;5075632;28;20049;-73
2022/04/23 11:04:20;;;;;;;4.72;4.18;;;24.80;44.60;;;;;;5075524;28;20056;-74
2022/04/23 11:12:37;;;;;;;4.40;4.00;;;26.70;41.60;;;;;;5075038;28;20047;-75
2022/04/23 11:15:15;;;;;;;4.35;4.00;;;26.30;41.60;;;;;;5075268;28;20407;-73
2022/04/23 11:17:58;;;;;;;3.78;3.47;;;25.70;42.00;;;;;;5074991;28;20482;-73
2022/04/23 11:20:31;;;;;;;4.78;4.03;;;26.20;41.70;;;;;;5075117;28;20052;-74
2022/04/23 11:22:59;;;;;;;3.55;3.25;;;26.70;41.30;;;;;;5075122;28;20113;-73
2022/04/23 11:25:26;;;;;;;3.83;3.42;;;25.70;40.90;;;;;;5075048;28;20131;-74
2022/04/23 11:28:00;;;;;;;3.95;3.22;;;26.00;41.10;;;;;;5074814;28;20048;-74
2022/04/23 11:30:28;;;;;;;4.22;3.92;;;26.00;40.40;;;;;;5074742;28;20521;-72
2022/04/23 11:32:55;;;;;;;4.20;3.90;;;26.20;40.50;;;;;;5074685;28;20056;-73
2022/04/23 11:35:29;;;;;;;4.30;3.90;;;26.50;39.90;;;;;;5075064;28;20411;-74
2022/04/23 11:37:56;;;;;;;3.83;3.53;;;26.50;40.00;;;;;;5074938;28;20090;-73
2022/04/23 11:40:28;;;;;;;3.47;3.17;;;26.70;40.00;;;;;;5074525;28;20098;-74
2022/04/23 11:42:56;;;;;;;3.78;3.47;;;27.00;39.00;;;;;;5074592;28;20059;-74
2022/04/23 11:45:23;;;;;;;4.00;3.53;;;27.30;38.60;;;;;;5074290;28;20456;-74
2022/04/23 11:47:53;;;;;;;3.83;2.97;;;27.30;38.80;;;;;;5074665;28;20143;-74
2022/04/23 11:50:21;;;;;;;3.28;3.08;;;26.70;38.10;;;;;;5074422;28;20044;-73
2022/04/23 11:52:57;;;;;;;3.38;3.08;;;26.60;38.40;;;;;;5074141;28;20521;-74
2022/04/23 11:55:26;;;;;;;3.60;3.30;;;26.60;38.30;;;;;;5074408;28;20057;-74
2022/04/23 11:57:55;;;;;;;3.20;3.00;;;26.80;38.10;;;;;;5074313;28;20052;-73
2022/04/23 12:00:22;;;;;;;3.42;3.13;;;26.70;38.00;;;;;;5074328;28;20041;-73
2022/04/23 12:02:50;;;;;;;2.83;2.63;;;26.70;37.70;;;;;;5074567;28;20087;-73
2022/04/23 12:05:23;;;;;;;3.25;2.88;;;26.40;37.30;;;;;;5073994;28;20509;-73
2022/04/23 12:07:50;;;;;;;2.97;2.72;;;26.60;37.10;;;;;;5074212;28;20066;-73
2022/04/23 12:10:23;;;;;;;3.03;2.80;;;26.50;37.70;;;;;;5073794;28;20501;-74
2022/04/23 12:12:51;;;;;;;3.45;3.15;;;26.40;36.70;;;;;;5074248;28;20057;-73
2022/04/23 12:15:21;;;;;;;3.17;2.97;;;26.40;37.10;;;;;;5073932;28;20059;-74
2022/04/23 12:17:49;;;;;;;3.67;3.38;;;26.70;37.50;;;;;;5073610;28;20052;-73
2022/04/23 12:20:17;;;;;;;4.30;3.90;;;26.30;38.30;;;;;;5074645;28;20048;-75
2022/04/23 12:22:55;;;;;;;3.25;2.95;;;26.00;38.70;;;;;;5074057;28;20064;-73
2022/04/23 12:25:25;;;;;;;3.53;3.22;;;26.10;37.70;;;;;;5074051;28;20457;-73
2022/04/23 12:27:56;;;;;;;3.38;3.08;;;25.90;37.60;;;;;;5074181;28;20048;-74
2022/04/23 12:41:54;;;;;;;5.30;4.22;;;26.20;39.60;;;;;;5033339;28;20040;-74
2022/04/23 12:44:22;;;;;;;4.00;3.60;;;26.40;39.50;;;;;;5074135;28;20082;-74
2022/04/23 12:47:00;;;;;;;3.92;3.63;;;26.90;39.30;;;;;;5073699;28;20502;-74
2022/04/23 12:49:46;;;;;;;3.70;3.40;;;26.60;38.60;;;;;;5074000;28;20055;-73
2022/04/23 12:52:16;;;;;;;5.07;3.55;;;25.70;38.80;;;;;;5073655;28;20480;-75
2022/04/23 12:55:13;;;;;;;3.70;3.40;;;25.70;39.90;;;;;;5074386;28;20060;-74
2022/04/23 12:57:40;;;;;;;4.63;4.22;;;25.70;40.20;;;;;;5074165;28;20045;-73
2022/04/23 13:00:07;;;;;;;4.68;4.28;;;25.20;41.20;;;;;;5073544;28;20490;-74
2022/04/23 13:02:36;;;;;;;4.68;4.28;;;25.40;40.90;;;;;;5073768;28;20126;-74
2022/04/23 13:05:03;;;;;;;4.68;4.28;;;25.90;41.60;;;;;;5074097;28;20087;-73
2022/04/23 13:10:14;;;;;;;4.45;4.15;;;26.40;40.10;;;;;;5076170;28;20547;-73
2022/04/23 13:12:41;;;;;;;4.53;3.85;;;26.10;39.80;;;;;;5075559;28;20044;-75
2022/04/23 13:15:08;;;;;;;6.05;3.97;;;25.30;39.50;;;;;;5075497;28;20544;-74
2022/04/23 13:17:38;;;;;;;5.68;3.75;;;24.40;41.00;;;;;;5075835;28;20098;-73
2022/04/23 13:20:06;;;;;;;4.00;3.70;;;24.20;41.50;;;;;;5075334;28;20102;-74
2022/04/23 13:22:33;;;;;;;4.03;3.72;;;23.80;41.60;;;;;;5074739;28;20049;-75
2022/04/23 13:25:00;;;;;;;4.25;3.90;;;23.40;42.20;;;;;;5073732;28;20048;-73
2022/04/23 13:27:26;;;;;;;4.22;3.70;;;23.20;43.40;;;;;;5073449;28;20102;-74